EZY243 EGKK-LOWI
Flight info
| Callsign | EZY243 |
|---|---|
| Flight time | 1h 30m |
| Altitude | 23000 |
| Route | DVR2P DVR L9 KONAN/N0444F390 DCT KOK UL607 FERDI DCT REMBA DCT LIRSU DCT KRH DCT TEDGO/N0430F350 DCT BATUB/N0412F310 M738 MADEB MADEB1B |
| Aircraft | A20N/M-SDE2E3FGHIRWXY/LB1 |
Departure
| Time | 2026-05-05 20:36 |
|---|---|
| Airport | London Gatwick Airport (EGKK) |
Arrival
| Time | 2026-05-05 22:07 |
|---|---|
| Airport | Innsbruck Airport (LOWI) |
| Time | Latitude | Longitude | Altitude | Speed | Heading |
|---|---|---|---|---|---|
| 2026-05-05 20:01 | 51.15655 | -0.17794 | 208 ft | 0 kts | 167° |
| 2026-05-05 20:22 | 51.15659 | -0.17795 | 216 ft | 2 kts | 166° |
| 2026-05-05 20:22 | 51.15675 | -0.17801 | 216 ft | 2 kts | 166° |
| 2026-05-05 20:23 | 51.15691 | -0.17808 | 212 ft | 2 kts | 165° |
| 2026-05-05 20:23 | 51.15707 | -0.17816 | 210 ft | 2 kts | 157° |
| 2026-05-05 20:23 | 51.15717 | -0.17832 | 220 ft | 1 kts | 86° |
| 2026-05-05 20:23 | 51.15717 | -0.17838 | 220 ft | 0 kts | 80° |
| 2026-05-05 20:26 | 51.15726 | -0.17772 | 211 ft | 9 kts | 77° |
| 2026-05-05 20:26 | 51.15739 | -0.17679 | 215 ft | 9 kts | 77° |
| 2026-05-05 20:26 | 51.15753 | -0.17582 | 218 ft | 9 kts | 79° |
| 2026-05-05 20:26 | 51.15736 | -0.17514 | 220 ft | 7 kts | 140° |
| 2026-05-05 20:27 | 51.15695 | -0.17494 | 216 ft | 6 kts | 173° |
| 2026-05-05 20:27 | 51.15654 | -0.17480 | 214 ft | 6 kts | 168° |
| 2026-05-05 20:27 | 51.15628 | -0.17471 | 195 ft | 0 kts | 168° |
| 2026-05-05 20:28 | 51.15595 | -0.17460 | 212 ft | 11 kts | 168° |
| 2026-05-05 20:28 | 51.15538 | -0.17526 | 211 ft | 14 kts | 255° |
| 2026-05-05 20:28 | 51.15514 | -0.17702 | 216 ft | 16 kts | 258° |
| 2026-05-05 20:29 | 51.15490 | -0.17877 | 208 ft | 16 kts | 257° |
| 2026-05-05 20:29 | 51.15466 | -0.18046 | 213 ft | 15 kts | 257° |
| 2026-05-05 20:29 | 51.15414 | -0.18158 | 208 ft | 13 kts | 171° |
| 2026-05-05 20:29 | 51.15324 | -0.18126 | 208 ft | 13 kts | 167° |
| 2026-05-05 20:30 | 51.15236 | -0.18101 | 208 ft | 12 kts | 188° |
| 2026-05-05 20:30 | 51.15198 | -0.18200 | 212 ft | 11 kts | 260° |
| 2026-05-05 20:30 | 51.15185 | -0.18338 | 217 ft | 16 kts | 261° |
| 2026-05-05 20:30 | 51.15161 | -0.18515 | 216 ft | 16 kts | 257° |
| 2026-05-05 20:31 | 51.15137 | -0.18689 | 208 ft | 16 kts | 257° |
| 2026-05-05 20:31 | 51.15114 | -0.18860 | 217 ft | 15 kts | 258° |
| 2026-05-05 20:31 | 51.15092 | -0.19022 | 210 ft | 15 kts | 257° |
| 2026-05-05 20:31 | 51.15066 | -0.19210 | 210 ft | 21 kts | 257° |
| 2026-05-05 20:32 | 51.15035 | -0.19438 | 214 ft | 21 kts | 257° |
| 2026-05-05 20:32 | 51.15003 | -0.19664 | 214 ft | 21 kts | 258° |
| 2026-05-05 20:32 | 51.14967 | -0.19921 | 210 ft | 28 kts | 257° |
| 2026-05-05 20:32 | 51.14926 | -0.20224 | 216 ft | 28 kts | 257° |
| 2026-05-05 20:33 | 51.14884 | -0.20527 | 214 ft | 28 kts | 257° |
| 2026-05-05 20:33 | 51.14843 | -0.20824 | 208 ft | 27 kts | 257° |
| 2026-05-05 20:33 | 51.14806 | -0.21093 | 210 ft | 21 kts | 257° |
| 2026-05-05 20:33 | 51.14770 | -0.21283 | 208 ft | 18 kts | 257° |
| 2026-05-05 20:34 | 51.14722 | -0.21408 | 211 ft | 11 kts | 180° |
| 2026-05-05 20:34 | 51.14654 | -0.21354 | 212 ft | 10 kts | 140° |
| 2026-05-05 20:34 | 51.14617 | -0.21330 | 214 ft | 0 kts | 168° |
| 2026-05-05 20:35 | 51.14605 | -0.21326 | 208 ft | 15 kts | 168° |
| 2026-05-05 20:35 | 51.14523 | -0.21158 | 211 ft | 5 kts | 79° |
| 2026-05-05 20:35 | 51.14523 | -0.21157 | 209 ft | 0 kts | 78° |
| 2026-05-05 20:35 | 51.14555 | -0.20925 | 216 ft | 54 kts | 77° |
| 2026-05-05 20:36 | 51.14685 | -0.19991 | 218 ft | 117 kts | 78° |
| 2026-05-05 20:36 | 51.14890 | -0.18464 | 286 ft | 158 kts | 77° |
| 2026-05-05 20:36 | 51.15140 | -0.16706 | 772 ft | 165 kts | 77° |
| 2026-05-05 20:36 | 51.15398 | -0.14848 | 1490 ft | 177 kts | 78° |
| 2026-05-05 20:37 | 51.15660 | -0.12920 | 2242 ft | 182 kts | 77° |
| 2026-05-05 20:37 | 51.15840 | -0.11604 | 2761 ft | 184 kts | 77° |
| 2026-05-05 20:37 | 51.16207 | -0.08920 | 3768 ft | 185 kts | 75° |
| 2026-05-05 20:37 | 51.16477 | -0.06948 | 4512 ft | 184 kts | 75° |
| 2026-05-05 20:38 | 51.16746 | -0.04955 | 5241 ft | 183 kts | 76° |
| 2026-05-05 20:38 | 51.16873 | -0.02920 | 5900 ft | 188 kts | 85° |
| 2026-05-05 20:38 | 51.16873 | -0.00698 | 6084 ft | 216 kts | 88° |
| 2026-05-05 20:38 | 51.16831 | 0.01852 | 6065 ft | 247 kts | 89° |
| 2026-05-05 20:39 | 51.16775 | 0.04746 | 6189 ft | 273 kts | 89° |
| 2026-05-05 20:39 | 51.16712 | 0.07820 | 6943 ft | 280 kts | 89° |
| 2026-05-05 20:39 | 51.16647 | 0.10914 | 8030 ft | 278 kts | 89° |
| 2026-05-05 20:39 | 51.16587 | 0.13984 | 9025 ft | 280 kts | 89° |
| 2026-05-05 20:40 | 51.16565 | 0.17117 | 9959 ft | 284 kts | 88° |
| 2026-05-05 20:40 | 51.16567 | 0.20286 | 10809 ft | 288 kts | 88° |
| 2026-05-05 20:40 | 51.16573 | 0.23504 | 11655 ft | 292 kts | 88° |
| 2026-05-05 20:40 | 51.16580 | 0.26781 | 12542 ft | 296 kts | 88° |
| 2026-05-05 20:41 | 51.16585 | 0.30085 | 13425 ft | 300 kts | 88° |
| 2026-05-05 20:41 | 51.16588 | 0.33400 | 14259 ft | 303 kts | 89° |
| 2026-05-05 20:41 | 51.16590 | 0.36793 | 15051 ft | 307 kts | 89° |
| 2026-05-05 20:41 | 51.16590 | 0.40181 | 15836 ft | 309 kts | 89° |
| 2026-05-05 20:42 | 51.16589 | 0.43652 | 16623 ft | 312 kts | 89° |
| 2026-05-05 20:42 | 51.16587 | 0.47099 | 17376 ft | 316 kts | 89° |
| 2026-05-05 20:42 | 51.16564 | 0.50657 | 18025 ft | 324 kts | 90° |
| 2026-05-05 20:42 | 51.16514 | 0.54346 | 18378 ft | 341 kts | 90° |
| 2026-05-05 20:43 | 51.16467 | 0.57151 | 18572 ft | 353 kts | 90° |
| 2026-05-05 20:43 | 51.16446 | 0.58325 | 18664 ft | 358 kts | 91° |
| 2026-05-05 20:43 | 51.16370 | 0.62311 | 19043 ft | 369 kts | 91° |
| 2026-05-05 20:43 | 51.16288 | 0.66434 | 19625 ft | 373 kts | 90° |
| 2026-05-05 20:44 | 51.16206 | 0.70593 | 20230 ft | 378 kts | 91° |
| 2026-05-05 20:44 | 51.16123 | 0.74820 | 20812 ft | 382 kts | 91° |
| 2026-05-05 20:44 | 51.16040 | 0.79030 | 21419 ft | 386 kts | 90° |
| 2026-05-05 20:44 | 51.15956 | 0.83338 | 22008 ft | 390 kts | 91° |
| 2026-05-05 20:45 | 51.15781 | 0.92098 | 22926 ft | 398 kts | 90° |
| 2026-05-05 20:45 | 51.15691 | 0.96474 | 22948 ft | 398 kts | 91° |
| 2026-05-05 20:45 | 51.15599 | 1.00877 | 22963 ft | 397 kts | 91° |
| 2026-05-05 20:46 | 51.15505 | 1.05283 | 22950 ft | 397 kts | 91° |
| 2026-05-05 20:46 | 51.15720 | 1.09633 | 23177 ft | 395 kts | 79° |
| 2026-05-05 20:46 | 51.16042 | 1.13996 | 23190 ft | 397 kts | 88° |
| 2026-05-05 20:46 | 51.15937 | 1.18347 | 22977 ft | 397 kts | 94° |
| 2026-05-05 20:47 | 51.15642 | 1.22740 | 22953 ft | 398 kts | 96° |
| 2026-05-05 20:47 | 51.15324 | 1.27133 | 22948 ft | 397 kts | 96° |
| 2026-05-05 20:47 | 51.15056 | 1.31472 | 22939 ft | 397 kts | 94° |
| 2026-05-05 20:47 | 51.14846 | 1.35869 | 22949 ft | 397 kts | 93° |
| 2026-05-05 20:48 | 51.14686 | 1.40285 | 22934 ft | 397 kts | 92° |
| 2026-05-05 20:48 | 51.14562 | 1.44622 | 22944 ft | 397 kts | 92° |
| 2026-05-05 20:48 | 51.14452 | 1.49024 | 22929 ft | 397 kts | 92° |
| 2026-05-05 20:48 | 51.14347 | 1.53425 | 22940 ft | 396 kts | 92° |
| 2026-05-05 20:49 | 51.14242 | 1.57811 | 22939 ft | 396 kts | 92° |
| 2026-05-05 20:49 | 51.14134 | 1.62200 | 22939 ft | 396 kts | 92° |
| 2026-05-05 20:49 | 51.14023 | 1.66526 | 22932 ft | 396 kts | 92° |
| 2026-05-05 20:49 | 51.13906 | 1.70935 | 22931 ft | 396 kts | 92° |
| 2026-05-05 20:50 | 51.13788 | 1.75287 | 22927 ft | 396 kts | 92° |
| 2026-05-05 20:50 | 51.13706 | 1.78255 | 22934 ft | 396 kts | 92° |
| 2026-05-05 20:50 | 51.13543 | 1.84050 | 22933 ft | 396 kts | 92° |
| 2026-05-05 20:50 | 51.13417 | 1.88446 | 22938 ft | 396 kts | 92° |
| 2026-05-05 20:51 | 51.13291 | 1.92835 | 22927 ft | 397 kts | 93° |
| 2026-05-05 20:51 | 51.13205 | 1.95759 | 22938 ft | 399 kts | 94° |
| 2026-05-05 20:51 | 51.12798 | 2.01592 | 22930 ft | 400 kts | 101° |
| 2026-05-05 20:51 | 51.12494 | 2.04499 | 22929 ft | 400 kts | 102° |
| 2026-05-05 20:52 | 51.11987 | 2.08879 | 22927 ft | 400 kts | 102° |
| 2026-05-05 20:52 | 51.11447 | 2.13224 | 22937 ft | 400 kts | 104° |
| 2026-05-05 20:52 | 51.10896 | 2.17519 | 22937 ft | 400 kts | 103° |
| 2026-05-05 20:52 | 51.10332 | 2.21856 | 22921 ft | 400 kts | 103° |
| 2026-05-05 20:53 | 51.09766 | 2.26195 | 22935 ft | 400 kts | 103° |
| 2026-05-05 20:53 | 51.09202 | 2.30537 | 23229 ft | 403 kts | 104° |
| 2026-05-05 20:53 | 51.08632 | 2.34933 | 23775 ft | 405 kts | 103° |
| 2026-05-05 20:53 | 51.08061 | 2.39338 | 24285 ft | 408 kts | 103° |
| 2026-05-05 20:54 | 51.07493 | 2.43718 | 24747 ft | 410 kts | 103° |
| 2026-05-05 20:54 | 51.06914 | 2.48182 | 25260 ft | 412 kts | 103° |
| 2026-05-05 20:54 | 51.06330 | 2.52663 | 25790 ft | 412 kts | 103° |
| 2026-05-05 20:54 | 51.05912 | 2.57191 | 26260 ft | 417 kts | 90° |
| 2026-05-05 20:55 | 51.06353 | 2.61722 | 26739 ft | 423 kts | 76° |
| 2026-05-05 20:55 | 51.07146 | 2.66241 | 27209 ft | 422 kts | 83° |
| 2026-05-05 20:55 | 51.07177 | 2.70885 | 27634 ft | 418 kts | 103° |
| 2026-05-05 20:55 | 51.06270 | 2.75247 | 28026 ft | 415 kts | 120° |
| 2026-05-05 20:56 | 51.04605 | 2.78929 | 28360 ft | 416 kts | 135° |
| 2026-05-05 20:56 | 51.02363 | 2.81858 | 28719 ft | 417 kts | 148° |
| 2026-05-05 20:56 | 50.99787 | 2.84017 | 29191 ft | 417 kts | 153° |
| 2026-05-05 20:56 | 50.97380 | 2.86465 | 29650 ft | 418 kts | 141° |
| 2026-05-05 20:57 | 50.95292 | 2.89724 | 30045 ft | 420 kts | 130° |
| 2026-05-05 20:57 | 50.93646 | 2.93526 | 30368 ft | 424 kts | 120° |
| 2026-05-05 20:57 | 50.92463 | 2.97846 | 30669 ft | 429 kts | 109° |
| 2026-05-05 20:57 | 50.91817 | 3.02460 | 31056 ft | 431 kts | 99° |
| 2026-05-05 20:58 | 50.91589 | 3.07209 | 31496 ft | 431 kts | 95° |
| 2026-05-05 20:58 | 50.91516 | 3.11972 | 31919 ft | 431 kts | 93° |
| 2026-05-05 20:58 | 50.91514 | 3.16729 | 32327 ft | 430 kts | 92° |
| 2026-05-05 20:58 | 50.91531 | 3.21471 | 32718 ft | 429 kts | 92° |
| 2026-05-05 20:59 | 50.91543 | 3.26132 | 33096 ft | 428 kts | 93° |
| 2026-05-05 20:59 | 50.91540 | 3.30864 | 33474 ft | 426 kts | 93° |
| 2026-05-05 20:59 | 50.91522 | 3.35536 | 33833 ft | 426 kts | 93° |
| 2026-05-05 20:59 | 50.91492 | 3.40233 | 34120 ft | 425 kts | 94° |
| 2026-05-05 21:00 | 50.91454 | 3.44949 | 34353 ft | 426 kts | 94° |
| 2026-05-05 21:00 | 50.91412 | 3.49605 | 34565 ft | 428 kts | 94° |
| 2026-05-05 21:00 | 50.91366 | 3.54343 | 34777 ft | 429 kts | 94° |
| 2026-05-05 21:00 | 50.91312 | 3.59096 | 34989 ft | 429 kts | 95° |
| 2026-05-05 21:01 | 50.91009 | 3.63741 | 35184 ft | 428 kts | 103° |
| 2026-05-05 21:01 | 50.90337 | 3.68362 | 35386 ft | 428 kts | 107° |
| 2026-05-05 21:01 | 50.89560 | 3.72879 | 35580 ft | 428 kts | 108° |
| 2026-05-05 21:01 | 50.88714 | 3.77437 | 35780 ft | 429 kts | 109° |
| 2026-05-05 21:02 | 50.87841 | 3.81961 | 35993 ft | 429 kts | 109° |
| 2026-05-05 21:02 | 50.86963 | 3.86456 | 36177 ft | 431 kts | 109° |
| 2026-05-05 21:02 | 50.86067 | 3.91028 | 36365 ft | 432 kts | 109° |
| 2026-05-05 21:02 | 50.85185 | 3.95540 | 36547 ft | 433 kts | 109° |
| 2026-05-05 21:03 | 50.84303 | 4.00071 | 36731 ft | 434 kts | 109° |
| 2026-05-05 21:03 | 50.83414 | 4.04647 | 36912 ft | 435 kts | 109° |
| 2026-05-05 21:03 | 50.82519 | 4.09256 | 37088 ft | 435 kts | 109° |
| 2026-05-05 21:03 | 50.81639 | 4.13786 | 37259 ft | 436 kts | 109° |
| 2026-05-05 21:04 | 50.80743 | 4.18387 | 37426 ft | 437 kts | 109° |
| 2026-05-05 21:04 | 50.79841 | 4.23007 | 37596 ft | 438 kts | 109° |
| 2026-05-05 21:04 | 50.78949 | 4.27562 | 37772 ft | 438 kts | 109° |
| 2026-05-05 21:04 | 50.78045 | 4.32172 | 37934 ft | 439 kts | 109° |
| 2026-05-05 21:05 | 50.77134 | 4.36803 | 38069 ft | 440 kts | 109° |
| 2026-05-05 21:05 | 50.76232 | 4.41373 | 38212 ft | 441 kts | 109° |
| 2026-05-05 21:05 | 50.75315 | 4.46010 | 38357 ft | 441 kts | 109° |
| 2026-05-05 21:05 | 50.74393 | 4.50660 | 38507 ft | 442 kts | 109° |
| 2026-05-05 21:06 | 50.73471 | 4.55304 | 38626 ft | 443 kts | 109° |
| 2026-05-05 21:06 | 50.72554 | 4.59907 | 38749 ft | 443 kts | 110° |
| 2026-05-05 21:06 | 50.71634 | 4.64517 | 38850 ft | 443 kts | 110° |
| 2026-05-05 21:06 | 50.70701 | 4.69179 | 38872 ft | 444 kts | 110° |
| 2026-05-05 21:07 | 50.68844 | 4.78429 | 38878 ft | 442 kts | 110° |
| 2026-05-05 21:07 | 50.66979 | 4.87678 | 38868 ft | 442 kts | 110° |
| 2026-05-05 21:08 | 50.64653 | 4.96617 | 38866 ft | 439 kts | 117° |
| 2026-05-05 21:08 | 50.62071 | 5.05347 | 38856 ft | 439 kts | 118° |
| 2026-05-05 21:09 | 50.59448 | 5.13992 | 38858 ft | 439 kts | 118° |
| 2026-05-05 21:09 | 50.56811 | 5.22659 | 38856 ft | 439 kts | 118° |
| 2026-05-05 21:10 | 50.54177 | 5.31315 | 38857 ft | 439 kts | 118° |
| 2026-05-05 21:10 | 50.51539 | 5.39967 | 38850 ft | 439 kts | 118° |
| 2026-05-05 21:11 | 50.48898 | 5.48606 | 38851 ft | 438 kts | 118° |
| 2026-05-05 21:11 | 50.46254 | 5.57221 | 38838 ft | 438 kts | 118° |
| 2026-05-05 21:12 | 50.43607 | 5.65811 | 38842 ft | 438 kts | 118° |
| 2026-05-05 21:12 | 50.40943 | 5.74430 | 38840 ft | 438 kts | 118° |
| 2026-05-05 21:13 | 50.38273 | 5.83035 | 38839 ft | 438 kts | 118° |
| 2026-05-05 21:13 | 50.35617 | 5.91568 | 38828 ft | 438 kts | 118° |
| 2026-05-05 21:14 | 50.32926 | 6.00183 | 38817 ft | 438 kts | 118° |
| 2026-05-05 21:14 | 50.30250 | 6.08718 | 38815 ft | 439 kts | 118° |
| 2026-05-05 21:15 | 50.27562 | 6.17263 | 38815 ft | 439 kts | 118° |
| 2026-05-05 21:15 | 50.25051 | 6.25220 | 38813 ft | 439 kts | 118° |
| 2026-05-05 21:16 | 50.22341 | 6.33780 | 38805 ft | 440 kts | 118° |
| 2026-05-05 21:16 | 50.19588 | 6.42370 | 38803 ft | 440 kts | 122° |
| 2026-05-05 21:17 | 50.16102 | 6.50084 | 38793 ft | 436 kts | 130° |
| 2026-05-05 21:17 | 50.12237 | 6.57396 | 38801 ft | 435 kts | 132° |
| 2026-05-05 21:18 | 50.08321 | 6.64570 | 38802 ft | 435 kts | 133° |
| 2026-05-05 21:18 | 50.04403 | 6.71739 | 38805 ft | 435 kts | 132° |
| 2026-05-05 21:19 | 50.00474 | 6.78947 | 38804 ft | 436 kts | 132° |
| 2026-05-05 21:19 | 49.96563 | 6.86119 | 38795 ft | 436 kts | 133° |
| 2026-05-05 21:20 | 49.92652 | 6.93273 | 38805 ft | 437 kts | 133° |
| 2026-05-05 21:20 | 49.88720 | 7.00445 | 38807 ft | 437 kts | 133° |
| 2026-05-05 21:21 | 49.84760 | 7.07647 | 38810 ft | 437 kts | 133° |
| 2026-05-05 21:21 | 49.80826 | 7.14781 | 38817 ft | 437 kts | 133° |
| 2026-05-05 21:22 | 49.76880 | 7.21919 | 38815 ft | 437 kts | 133° |
| 2026-05-05 21:22 | 49.72941 | 7.29024 | 38812 ft | 437 kts | 133° |
| 2026-05-05 21:23 | 49.68968 | 7.36170 | 38813 ft | 436 kts | 133° |
| 2026-05-05 21:23 | 49.65012 | 7.43267 | 38815 ft | 437 kts | 133° |
| 2026-05-05 21:24 | 49.61050 | 7.50355 | 38813 ft | 436 kts | 134° |
| 2026-05-05 21:24 | 49.57080 | 7.57438 | 38815 ft | 436 kts | 134° |
| 2026-05-05 21:25 | 49.55147 | 7.60879 | 38813 ft | 436 kts | 134° |
| 2026-05-05 21:25 | 49.53240 | 7.64271 | 38802 ft | 436 kts | 134° |
| 2026-05-05 21:26 | 49.49255 | 7.71343 | 38813 ft | 436 kts | 134° |
| 2026-05-05 21:26 | 49.45285 | 7.78370 | 38817 ft | 436 kts | 134° |
| 2026-05-05 21:27 | 49.41319 | 7.85370 | 38815 ft | 436 kts | 134° |
| 2026-05-05 21:27 | 49.37319 | 7.92410 | 38817 ft | 436 kts | 134° |
| 2026-05-05 21:28 | 49.33340 | 7.99397 | 38823 ft | 436 kts | 134° |
| 2026-05-05 21:28 | 49.29336 | 8.06409 | 38828 ft | 436 kts | 134° |
| 2026-05-05 21:29 | 49.25337 | 8.13392 | 38833 ft | 435 kts | 134° |
| 2026-05-05 21:29 | 49.21346 | 8.20343 | 38829 ft | 436 kts | 135° |
| 2026-05-05 21:30 | 49.17343 | 8.27295 | 38835 ft | 437 kts | 135° |
| 2026-05-05 21:30 | 49.13314 | 8.34274 | 38840 ft | 437 kts | 135° |
| 2026-05-05 21:31 | 49.09309 | 8.41196 | 38839 ft | 437 kts | 135° |
| 2026-05-05 21:31 | 49.05274 | 8.48148 | 38841 ft | 437 kts | 135° |
| 2026-05-05 21:32 | 49.01237 | 8.55088 | 38845 ft | 437 kts | 135° |
| 2026-05-05 21:32 | 48.97237 | 8.62083 | 38843 ft | 438 kts | 134° |
| 2026-05-05 21:33 | 48.93332 | 8.69197 | 38848 ft | 438 kts | 133° |
| 2026-05-05 21:33 | 48.89442 | 8.76314 | 38849 ft | 438 kts | 133° |
| 2026-05-05 21:34 | 48.85560 | 8.83369 | 38850 ft | 437 kts | 134° |
| 2026-05-05 21:34 | 48.81651 | 8.90434 | 38856 ft | 437 kts | 134° |
| 2026-05-05 21:35 | 48.77732 | 8.97491 | 38855 ft | 437 kts | 134° |
| 2026-05-05 21:35 | 48.73821 | 9.04514 | 38856 ft | 437 kts | 134° |
| 2026-05-05 21:36 | 48.70549 | 9.10375 | 38856 ft | 437 kts | 134° |
| 2026-05-05 21:36 | 48.65962 | 9.18573 | 38850 ft | 438 kts | 134° |
| 2026-05-05 21:37 | 48.62407 | 9.23945 | 38852 ft | 431 kts | 146° |
| 2026-05-05 21:37 | 48.57244 | 9.28298 | 38500 ft | 421 kts | 161° |
| 2026-05-05 21:38 | 48.54506 | 9.29874 | 37943 ft | 418 kts | 163° |
| 2026-05-05 21:38 | 48.51792 | 9.31286 | 37393 ft | 417 kts | 165° |
| 2026-05-05 21:38 | 48.49031 | 9.32655 | 36842 ft | 416 kts | 165° |
| 2026-05-05 21:38 | 48.46279 | 9.34005 | 36286 ft | 415 kts | 165° |
| 2026-05-05 21:39 | 48.43562 | 9.35344 | 35750 ft | 415 kts | 165° |
| 2026-05-05 21:39 | 48.40813 | 9.36714 | 35223 ft | 414 kts | 164° |
| 2026-05-05 21:39 | 48.38069 | 9.38096 | 34929 ft | 415 kts | 164° |
| 2026-05-05 21:39 | 48.35319 | 9.39488 | 34884 ft | 418 kts | 164° |
| 2026-05-05 21:40 | 48.29817 | 9.42286 | 34878 ft | 419 kts | 164° |
| 2026-05-05 21:40 | 48.24273 | 9.45104 | 34874 ft | 419 kts | 165° |
| 2026-05-05 21:41 | 48.18776 | 9.47889 | 34883 ft | 419 kts | 165° |
| 2026-05-05 21:41 | 48.13233 | 9.50690 | 34885 ft | 419 kts | 165° |
| 2026-05-05 21:42 | 48.07713 | 9.53472 | 34891 ft | 419 kts | 165° |
| 2026-05-05 21:42 | 48.02240 | 9.56605 | 34888 ft | 424 kts | 156° |
| 2026-05-05 21:43 | 47.97228 | 9.61365 | 34478 ft | 427 kts | 150° |
| 2026-05-05 21:43 | 47.94831 | 9.63907 | 33964 ft | 427 kts | 149° |
| 2026-05-05 21:43 | 47.92421 | 9.66529 | 33331 ft | 427 kts | 148° |
| 2026-05-05 21:44 | 47.90029 | 9.69151 | 32784 ft | 425 kts | 148° |
| 2026-05-05 21:44 | 47.87687 | 9.71715 | 32305 ft | 422 kts | 148° |
| 2026-05-05 21:44 | 47.85315 | 9.74300 | 31813 ft | 418 kts | 148° |
| 2026-05-05 21:44 | 47.82965 | 9.76846 | 31247 ft | 417 kts | 149° |
| 2026-05-05 21:45 | 47.80622 | 9.79369 | 30564 ft | 419 kts | 149° |
| 2026-05-05 21:45 | 47.78246 | 9.81917 | 29835 ft | 422 kts | 150° |
| 2026-05-05 21:45 | 47.75842 | 9.84487 | 28982 ft | 425 kts | 150° |
| 2026-05-05 21:45 | 47.73457 | 9.87035 | 28172 ft | 427 kts | 150° |
| 2026-05-05 21:46 | 47.71023 | 9.89633 | 27361 ft | 429 kts | 150° |
| 2026-05-05 21:46 | 47.68614 | 9.92205 | 26595 ft | 431 kts | 149° |
| 2026-05-05 21:46 | 47.66167 | 9.94816 | 25835 ft | 432 kts | 149° |
| 2026-05-05 21:46 | 47.63715 | 9.97429 | 25092 ft | 433 kts | 149° |
| 2026-05-05 21:47 | 47.61296 | 10.00005 | 24381 ft | 433 kts | 149° |
| 2026-05-05 21:47 | 47.58845 | 10.02611 | 23679 ft | 432 kts | 149° |
| 2026-05-05 21:47 | 47.56388 | 10.05222 | 22880 ft | 431 kts | 149° |
| 2026-05-05 21:47 | 47.53976 | 10.07781 | 22047 ft | 430 kts | 149° |
| 2026-05-05 21:48 | 47.51541 | 10.10362 | 21260 ft | 428 kts | 149° |
| 2026-05-05 21:48 | 47.49118 | 10.12925 | 20490 ft | 425 kts | 148° |
| 2026-05-05 21:48 | 47.46729 | 10.15454 | 19740 ft | 423 kts | 148° |
| 2026-05-05 21:48 | 47.44330 | 10.17970 | 19020 ft | 420 kts | 149° |
| 2026-05-05 21:49 | 47.41879 | 10.20305 | 18299 ft | 417 kts | 151° |
| 2026-05-05 21:49 | 47.39441 | 10.22531 | 17508 ft | 414 kts | 151° |
| 2026-05-05 21:49 | 47.36993 | 10.24757 | 16709 ft | 412 kts | 150° |
| 2026-05-05 21:49 | 47.34682 | 10.27257 | 15948 ft | 413 kts | 140° |
| 2026-05-05 21:50 | 47.32842 | 10.30519 | 15190 ft | 416 kts | 124° |
| 2026-05-05 21:50 | 47.31702 | 10.34432 | 14517 ft | 417 kts | 107° |
| 2026-05-05 21:50 | 47.31064 | 10.38540 | 14224 ft | 404 kts | 103° |
| 2026-05-05 21:50 | 47.30529 | 10.42528 | 13983 ft | 390 kts | 102° |
| 2026-05-05 21:51 | 47.30017 | 10.46377 | 13760 ft | 377 kts | 103° |
| 2026-05-05 21:51 | 47.29516 | 10.50100 | 13551 ft | 363 kts | 103° |
| 2026-05-05 21:51 | 47.29027 | 10.53689 | 13381 ft | 351 kts | 103° |
| 2026-05-05 21:51 | 47.28686 | 10.57192 | 13144 ft | 341 kts | 94° |
| 2026-05-05 21:52 | 47.28850 | 10.64009 | 13001 ft | 333 kts | 87° |
| 2026-05-05 21:52 | 47.29004 | 10.67418 | 12992 ft | 334 kts | 87° |
| 2026-05-05 21:52 | 47.29156 | 10.70847 | 13001 ft | 335 kts | 87° |
| 2026-05-05 21:53 | 47.29307 | 10.74274 | 12998 ft | 334 kts | 87° |
| 2026-05-05 21:53 | 47.29455 | 10.77688 | 12997 ft | 334 kts | 88° |
| 2026-05-05 21:53 | 47.29602 | 10.81108 | 12993 ft | 334 kts | 88° |
| 2026-05-05 21:53 | 47.29745 | 10.84487 | 12979 ft | 334 kts | 88° |
| 2026-05-05 21:54 | 47.29887 | 10.87902 | 12589 ft | 333 kts | 88° |
| 2026-05-05 21:54 | 47.30028 | 10.91297 | 12125 ft | 331 kts | 88° |
| 2026-05-05 21:54 | 47.30167 | 10.94673 | 11663 ft | 329 kts | 88° |
| 2026-05-05 21:54 | 47.30304 | 10.98021 | 11223 ft | 326 kts | 88° |
| 2026-05-05 21:55 | 47.30438 | 11.01356 | 10744 ft | 322 kts | 89° |
| 2026-05-05 21:55 | 47.30351 | 11.04603 | 10280 ft | 311 kts | 99° |
| 2026-05-05 21:55 | 47.30119 | 11.07726 | 9870 ft | 303 kts | 93° |
| 2026-05-05 21:55 | 47.30302 | 11.10805 | 9332 ft | 300 kts | 84° |
| 2026-05-05 21:56 | 47.30576 | 11.13796 | 8822 ft | 295 kts | 85° |
| 2026-05-05 21:56 | 47.30476 | 11.16764 | 8316 ft | 287 kts | 108° |
| 2026-05-05 21:56 | 47.29566 | 11.19308 | 7768 ft | 279 kts | 134° |
| 2026-05-05 21:56 | 47.28037 | 11.20991 | 7184 ft | 274 kts | 153° |
| 2026-05-05 21:57 | 47.26311 | 11.22166 | 6600 ft | 272 kts | 163° |
| 2026-05-05 21:57 | 47.24522 | 11.22859 | 6344 ft | 253 kts | 172° |
| 2026-05-05 21:57 | 47.22985 | 11.22521 | 6838 ft | 204 kts | 212° |
| 2026-05-05 21:57 | 47.22241 | 11.20973 | 6943 ft | 194 kts | 264° |
| 2026-05-05 21:58 | 47.22549 | 11.18907 | 6637 ft | 216 kts | 308° |
| 2026-05-05 21:58 | 47.23710 | 11.17647 | 6633 ft | 217 kts | 343° |
| 2026-05-05 21:58 | 47.25172 | 11.17570 | 6356 ft | 216 kts | 15° |
| 2026-05-05 21:58 | 47.26548 | 11.18709 | 5290 ft | 242 kts | 48° |
| 2026-05-05 21:59 | 47.27105 | 11.20971 | 4808 ft | 236 kts | 88° |
| 2026-05-05 21:59 | 47.26600 | 11.23275 | 3947 ft | 240 kts | 119° |
| 2026-05-05 21:59 | 47.25932 | 11.25440 | 3373 ft | 224 kts | 107° |
| 2026-05-05 21:59 | 47.25569 | 11.27512 | 3328 ft | 182 kts | 106° |
| 2026-05-05 22:00 | 47.25304 | 11.29011 | 3667 ft | 129 kts | 105° |
| 2026-05-05 22:00 | 47.25092 | 11.30266 | 2895 ft | 161 kts | 91° |
| 2026-05-05 22:00 | 47.25195 | 11.32091 | 2947 ft | 168 kts | 88° |
| 2026-05-05 22:00 | 47.25222 | 11.33912 | 3157 ft | 193 kts | 92° |
| 2026-05-05 22:01 | 47.25161 | 11.35977 | 3667 ft | 207 kts | 93° |
| 2026-05-05 22:01 | 47.25092 | 11.38115 | 4295 ft | 211 kts | 92° |
| 2026-05-05 22:01 | 47.24963 | 11.40318 | 4663 ft | 222 kts | 93° |
| 2026-05-05 22:01 | 47.24827 | 11.42599 | 4945 ft | 229 kts | 93° |
| 2026-05-05 22:02 | 47.24766 | 11.44943 | 4995 ft | 229 kts | 85° |
| 2026-05-05 22:02 | 47.24860 | 11.47301 | 4981 ft | 231 kts | 84° |
| 2026-05-05 22:02 | 47.25062 | 11.49653 | 4992 ft | 230 kts | 80° |
| 2026-05-05 22:02 | 47.25314 | 11.51955 | 4994 ft | 230 kts | 77° |
| 2026-05-05 22:03 | 47.25854 | 11.54144 | 4990 ft | 227 kts | 54° |
| 2026-05-05 22:03 | 47.27049 | 11.55597 | 4989 ft | 221 kts | 21° |
| 2026-05-05 22:03 | 47.28494 | 11.55801 | 4981 ft | 206 kts | 346° |
| 2026-05-05 22:03 | 47.29701 | 11.54753 | 4984 ft | 204 kts | 311° |
| 2026-05-05 22:04 | 47.30263 | 11.52869 | 4995 ft | 205 kts | 275° |
| 2026-05-05 22:04 | 47.30012 | 11.50819 | 4982 ft | 206 kts | 245° |
| 2026-05-05 22:04 | 47.29179 | 11.49122 | 4554 ft | 206 kts | 224° |
| 2026-05-05 22:04 | 47.28156 | 11.47748 | 4208 ft | 192 kts | 230° |
| 2026-05-05 22:05 | 47.27551 | 11.46104 | 3837 ft | 179 kts | 259° |
| 2026-05-05 22:05 | 47.27270 | 11.44400 | 3537 ft | 167 kts | 251° |
| 2026-05-05 22:05 | 47.26986 | 11.42774 | 3186 ft | 160 kts | 256° |
| 2026-05-05 22:05 | 47.26772 | 11.41184 | 2857 ft | 159 kts | 259° |
| 2026-05-05 22:06 | 47.26585 | 11.39587 | 2520 ft | 156 kts | 260° |
| 2026-05-05 22:06 | 47.26413 | 11.38041 | 2237 ft | 146 kts | 261° |
| 2026-05-05 22:06 | 47.26261 | 11.36596 | 2052 ft | 139 kts | 261° |
| 2026-05-05 22:06 | 47.26112 | 11.35240 | 1919 ft | 129 kts | 262° |
| 2026-05-05 22:07 | 47.25987 | 11.34063 | 1908 ft | 95 kts | 261° |
| 2026-05-05 22:07 | 47.25927 | 11.33522 | 1905 ft | 24 kts | 261° |
| 2026-05-05 22:07 | 47.25901 | 11.33277 | 1909 ft | 24 kts | 261° |
| 2026-05-05 22:07 | 47.25865 | 11.33074 | 1898 ft | 15 kts | 207° |
| 2026-05-05 22:08 | 47.25841 | 11.33173 | 1906 ft | 13 kts | 81° |
| 2026-05-05 22:08 | 47.25888 | 11.33291 | 1894 ft | 18 kts | 54° |
| 2026-05-05 22:08 | 47.25932 | 11.33558 | 1909 ft | 23 kts | 81° |
| 2026-05-05 22:08 | 47.25883 | 11.33731 | 1904 ft | 19 kts | 126° |
| 2026-05-05 22:09 | 47.25804 | 11.33890 | 1903 ft | 19 kts | 126° |
| 2026-05-05 22:09 | 47.25772 | 11.34074 | 1904 ft | 19 kts | 84° |
| 2026-05-05 22:09 | 47.25792 | 11.34262 | 1908 ft | 18 kts | 81° |
| 2026-05-05 22:09 | 47.25812 | 11.34448 | 1904 ft | 18 kts | 83° |
| 2026-05-05 22:10 | 47.25832 | 11.34626 | 1910 ft | 17 kts | 82° |
| 2026-05-05 22:10 | 47.25849 | 11.34802 | 1905 ft | 17 kts | 82° |
| 2026-05-05 22:10 | 47.25863 | 11.34922 | 1910 ft | 8 kts | 80° |
| 2026-05-05 22:10 | 47.25856 | 11.34986 | 1900 ft | 6 kts | 139° |
| 2026-05-05 22:11 | 47.25824 | 11.34991 | 1908 ft | 4 kts | 175° |
| 2026-05-05 22:11 | 47.25813 | 11.34993 | 1910 ft | 0 kts | 173° |